Time;durP1;ratioP1;P1;durP2;ratioP2;P2;SDS_P1;SDS_P2;PMS_P1;PMS_P2;Temp;Humidity;BMP_temperature;BMP_pressure;BME280_temperature;BME280_humidity;BME280_pressure;Samples;Min_cycle;Max_cycle;Signal;HPM_P1;HPM_P2
2022/11/09 00:01:00;;;;;;;4.07;2.60;;;21.00;51.10;;;;;;5117373;28;20440;-80
2022/11/09 00:03:28;;;;;;;2.20;2.03;;;21.10;51.10;;;;;;5127416;27;20449;-81
2022/11/09 00:05:58;;;;;;;3.33;2.00;;;21.00;51.10;;;;;;5118305;28;20444;-80
2022/11/09 00:08:27;;;;;;;2.40;2.20;;;21.00;51.10;;;;;;5121351;27;20459;-78
2022/11/09 00:10:55;;;;;;;3.13;1.93;;;21.00;51.20;;;;;;5118236;28;20494;-81
2022/11/09 00:13:23;;;;;;;2.27;2.10;;;21.10;51.80;;;;;;5119038;28;20475;-80
2022/11/09 00:15:51;;;;;;;3.97;2.30;;;21.10;51.30;;;;;;5118998;28;20513;-79
2022/11/09 00:18:19;;;;;;;3.50;2.37;;;21.00;51.30;;;;;;5119408;28;20450;-81
2022/11/09 00:20:47;;;;;;;5.93;1.90;;;21.00;51.30;;;;;;5117228;28;20440;-77
2022/11/09 00:23:17;;;;;;;4.97;2.40;;;21.00;51.30;;;;;;5120487;27;20482;-80
2022/11/09 00:25:46;;;;;;;2.43;2.10;;;21.00;51.30;;;;;;5119669;28;20531;-80
2022/11/09 00:28:14;;;;;;;3.23;2.60;;;21.00;51.40;;;;;;5119452;28;20438;-80
2022/11/09 00:30:42;;;;;;;2.40;2.30;;;21.00;51.40;;;;;;5112575;28;20441;-81
2022/11/09 00:33:11;;;;;;;2.70;2.47;;;21.00;51.30;;;;;;5120255;28;20450;-81
2022/11/09 00:35:39;;;;;;;2.50;2.10;;;21.00;51.50;;;;;;5119480;28;20447;-81
2022/11/09 00:38:07;;;;;;;2.23;2.03;;;21.00;51.50;;;;;;5121577;28;20444;-80
2022/11/09 00:40:36;;;;;;;3.83;2.20;;;21.00;51.50;;;;;;5113578;28;20452;-80
2022/11/09 00:43:04;;;;;;;2.33;2.10;;;21.00;51.50;;;;;;5125580;27;20452;-80
2022/11/09 00:45:32;;;;;;;2.83;2.53;;;21.00;51.50;;;;;;5108506;28;20443;-79
2022/11/09 00:48:01;;;;;;;2.87;2.10;;;21.00;51.60;;;;;;5123013;28;20452;-78
2022/11/09 00:50:29;;;;;;;1.93;1.83;;;21.00;51.60;;;;;;5116384;28;20441;-80
2022/11/09 00:52:57;;;;;;;2.40;2.20;;;21.00;51.60;;;;;;5124208;28;20443;-80
2022/11/09 00:55:24;;;;;;;2.50;1.77;;;21.00;51.60;;;;;;5124236;27;20458;-80
2022/11/09 00:57:54;;;;;;;3.23;2.27;;;21.00;51.70;;;;;;5124838;28;20468;-80
2022/11/09 01:00:23;;;;;;;3.47;2.40;;;21.00;51.80;;;;;;5125564;28;20447;-81
2022/11/09 01:02:51;;;;;;;2.43;2.23;;;21.00;51.70;;;;;;5125337;28;20438;-81
2022/11/09 01:05:19;;;;;;;2.90;2.63;;;20.90;51.70;;;;;;5125257;27;20478;-82
2022/11/09 01:07:47;;;;;;;2.67;1.90;;;20.90;51.80;;;;;;5128780;27;20455;-81
2022/11/09 01:10:15;;;;;;;2.93;2.00;;;20.90;51.80;;;;;;5124241;28;20451;-81
2022/11/09 01:12:43;;;;;;;3.63;2.03;;;20.90;51.80;;;;;;5122359;27;20433;-82
2022/11/09 01:15:12;;;;;;;3.47;2.60;;;20.90;51.80;;;;;;5123163;28;20459;-81
2022/11/09 01:17:40;;;;;;;4.03;2.10;;;21.00;51.90;;;;;;5125049;28;20476;-82
2022/11/09 01:20:09;;;;;;;3.73;2.37;;;20.90;51.80;;;;;;5130538;27;20448;-82
2022/11/09 01:22:37;;;;;;;2.20;2.10;;;20.90;51.80;;;;;;5121061;28;20448;-81
2022/11/09 01:25:06;;;;;;;5.07;2.30;;;20.90;51.90;;;;;;5120949;28;21052;-80
2022/11/09 01:27:34;;;;;;;2.40;2.20;;;20.90;51.90;;;;;;5120483;28;20454;-79
2022/11/09 01:30:02;;;;;;;2.10;1.90;;;20.90;52.60;;;;;;5128271;27;20459;-81
2022/11/09 01:32:33;;;;;;;2.70;2.50;;;20.90;52.00;;;;;;5133087;27;20472;-82
2022/11/09 01:35:01;;;;;;;5.63;2.47;;;20.90;52.00;;;;;;5125142;28;20475;-81
2022/11/09 01:37:28;;;;;;;2.50;1.97;;;20.90;52.10;;;;;;5122831;28;20460;-82
2022/11/09 01:39:56;;;;;;;2.17;2.00;;;20.90;52.00;;;;;;5126346;27;20456;-82
2022/11/09 01:42:24;;;;;;;2.90;2.07;;;20.90;52.00;;;;;;5107039;28;20425;-79
2022/11/09 01:45:26;;;;;;;2.80;1.87;;;20.90;52.00;;;;;;5119123;28;20467;-80
2022/11/09 01:47:59;;;;;;;2.20;2.00;;;20.90;52.10;;;;;;5109606;27;20444;-81
2022/11/09 01:50:31;;;;;;;3.33;2.10;;;20.90;52.20;;;;;;5125490;27;20440;-80
2022/11/09 01:52:59;;;;;;;3.13;2.27;;;20.90;52.20;;;;;;5125024;28;20444;-81
2022/11/09 01:55:28;;;;;;;2.10;1.90;;;20.90;52.20;;;;;;5123254;27;20473;-81
2022/11/09 01:57:57;;;;;;;2.20;2.00;;;20.90;52.20;;;;;;5119981;27;20501;-81
2022/11/09 02:00:25;;;;;;;2.40;2.20;;;20.90;52.30;;;;;;5121651;28;20448;-81
2022/11/09 02:02:54;;;;;;;2.23;2.03;;;20.90;52.30;;;;;;5123952;28;20447;-80
2022/11/09 02:05:25;;;;;;;3.40;2.10;;;20.90;52.30;;;;;;5125894;27;20465;-80
2022/11/09 02:07:53;;;;;;;4.20;2.27;;;20.90;52.30;;;;;;5115812;28;20428;-80
2022/11/09 02:10:24;;;;;;;2.07;1.93;;;20.90;53.00;;;;;;5124421;28;20447;-80
2022/11/09 02:12:52;;;;;;;3.20;2.30;;;20.90;52.30;;;;;;5125870;27;20451;-80
2022/11/09 02:15:20;;;;;;;2.27;2.07;;;20.80;52.20;;;;;;5120201;27;20493;-80
2022/11/09 02:17:49;;;;;;;3.10;2.20;;;20.80;52.90;;;;;;5123042;27;20472;-82
2022/11/09 02:20:18;;;;;;;1.93;1.83;;;20.80;52.40;;;;;;5125095;28;20443;-82
2022/11/09 02:22:46;;;;;;;2.20;2.10;;;20.80;52.40;;;;;;5126833;28;20462;-81
2022/11/09 02:25:14;;;;;;;2.27;1.90;;;20.80;52.40;;;;;;5127623;28;20490;-82
2022/11/09 02:27:42;;;;;;;2.40;2.20;;;20.90;52.50;;;;;;5126239;28;20450;-82
2022/11/09 02:30:12;;;;;;;5.03;2.37;;;20.80;52.50;;;;;;5126920;28;20451;-83
2022/11/09 02:32:40;;;;;;;2.37;2.20;;;20.90;52.60;;;;;;5124670;28;20455;-82
2022/11/09 02:35:08;;;;;;;2.67;1.90;;;20.90;52.50;;;;;;5116569;28;20475;-82
2022/11/09 02:37:39;;;;;;;3.50;2.73;;;20.90;52.60;;;;;;5126368;28;20467;-82
2022/11/09 02:40:09;;;;;;;4.27;2.67;;;20.90;52.60;;;;;;5129695;27;20439;-82
2022/11/09 02:42:38;;;;;;;3.33;3.00;;;20.90;52.60;;;;;;5128058;27;20439;-82
2022/11/09 02:45:06;;;;;;;5.27;3.03;;;20.90;52.50;;;;;;5137200;27;20455;-84
2022/11/09 02:47:34;;;;;;;3.73;3.43;;;20.90;52.60;;;;;;5146262;27;20453;-83
2022/11/09 02:50:02;;;;;;;4.60;3.30;;;20.80;52.60;;;;;;5132551;27;20449;-81
2022/11/09 02:52:30;;;;;;;6.27;4.00;;;20.90;52.60;;;;;;5121475;28;20439;-84
2022/11/09 02:55:00;;;;;;;4.20;3.73;;;20.90;52.60;;;;;;5125466;28;20487;-83
2022/11/09 02:57:28;;;;;;;8.07;4.17;;;20.90;52.60;;;;;;5124267;28;20464;-84
2022/11/09 02:59:56;;;;;;;6.60;3.63;;;20.90;52.60;;;;;;5125782;28;20444;-83
2022/11/09 03:02:24;;;;;;;5.70;3.80;;;20.90;52.70;;;;;;5125216;28;20455;-83
2022/11/09 03:04:52;;;;;;;4.70;3.40;;;20.90;52.60;;;;;;5125167;28;20455;-83
2022/11/09 03:07:20;;;;;;;4.40;3.30;;;20.90;52.70;;;;;;5124582;28;20512;-83
2022/11/09 03:09:48;;;;;;;4.00;3.70;;;20.90;52.70;;;;;;5124583;28;20440;-83
2022/11/09 03:12:30;;;;;;;6.90;3.60;;;20.90;52.70;;;;;;5124634;28;20432;-83
2022/11/09 03:14:58;;;;;;;5.47;3.90;;;21.00;52.70;;;;;;5126104;28;20451;-84
2022/11/09 03:17:25;;;;;;;5.27;3.40;;;21.00;52.70;;;;;;5127098;27;20467;-82
2022/11/09 03:19:53;;;;;;;5.67;3.50;;;21.00;52.90;;;;;;5139052;27;20451;-83
2022/11/09 03:22:21;;;;;;;3.23;2.90;;;20.90;52.80;;;;;;5121952;27;20455;-84
2022/11/09 03:24:49;;;;;;;4.50;3.20;;;21.00;52.80;;;;;;5128086;28;20568;-82
2022/11/09 03:27:19;;;;;;;4.90;3.33;;;20.90;52.80;;;;;;5134997;27;20450;-83
2022/11/09 03:29:47;;;;;;;5.20;3.30;;;20.90;52.90;;;;;;5125119;27;20456;-81
2022/11/09 03:32:15;;;;;;;3.83;3.00;;;20.90;52.80;;;;;;5128065;27;20451;-82
2022/11/09 03:34:43;;;;;;;3.67;2.63;;;20.90;52.80;;;;;;5116787;28;20452;-84
2022/11/09 03:37:12;;;;;;;7.07;2.70;;;20.90;52.90;;;;;;5119838;27;20459;-80
2022/11/09 03:39:40;;;;;;;3.00;2.80;;;20.90;52.90;;;;;;5123448;27;20458;-82
2022/11/09 03:42:08;;;;;;;4.93;2.90;;;20.90;52.90;;;;;;5124388;27;20444;-82
2022/11/09 03:44:38;;;;;;;3.43;3.13;;;20.90;53.00;;;;;;5126751;27;20460;-83
2022/11/09 03:47:06;;;;;;;3.13;2.90;;;20.90;53.00;;;;;;5136261;27;20447;-83
2022/11/09 03:49:34;;;;;;;2.70;2.50;;;20.90;53.00;;;;;;5132941;27;20451;-82
2022/11/09 03:52:02;;;;;;;5.37;3.20;;;20.90;53.00;;;;;;5132919;27;20447;-83
2022/11/09 03:54:31;;;;;;;3.30;2.97;;;20.90;53.10;;;;;;5131650;27;20478;-83
2022/11/09 03:56:59;;;;;;;3.30;3.00;;;20.90;53.10;;;;;;5132614;27;20455;-83
2022/11/09 03:59:27;;;;;;;2.80;2.60;;;20.90;53.10;;;;;;5123915;27;20565;-84
2022/11/09 04:01:56;;;;;;;4.57;2.90;;;20.90;53.10;;;;;;5124905;27;20484;-83
2022/11/09 04:04:24;;;;;;;8.20;2.70;;;20.90;53.10;;;;;;5123089;27;20467;-82
2022/11/09 04:06:52;;;;;;;2.93;2.73;;;20.90;53.20;;;;;;5129493;27;20456;-83
2022/11/09 04:09:21;;;;;;;2.63;2.43;;;20.90;53.10;;;;;;5128965;27;20955;-83
2022/11/09 04:11:49;;;;;;;4.40;2.70;;;20.90;53.10;;;;;;5123715;27;20466;-82
2022/11/09 04:14:17;;;;;;;3.83;2.80;;;20.90;53.10;;;;;;5118810;28;20467;-82
2022/11/09 04:16:45;;;;;;;5.43;2.77;;;20.90;53.20;;;;;;5119220;27;20452;-83
2022/11/09 04:19:15;;;;;;;2.70;2.47;;;20.90;53.10;;;;;;5123706;28;20471;-83
2022/11/09 04:21:43;;;;;;;3.87;2.70;;;20.90;53.10;;;;;;5128102;27;20457;-81
2022/11/09 04:24:12;;;;;;;3.50;2.80;;;20.90;53.10;;;;;;5133321;27;20471;-83
2022/11/09 04:26:40;;;;;;;3.30;2.80;;;20.90;53.10;;;;;;5134948;27;20458;-83
2022/11/09 04:29:08;;;;;;;2.73;2.53;;;20.90;53.20;;;;;;5124598;28;20432;-82
2022/11/09 04:31:36;;;;;;;3.97;2.90;;;20.90;53.10;;;;;;5125058;28;20455;-84
2022/11/09 04:34:04;;;;;;;2.90;2.70;;;20.90;53.20;;;;;;5130562;28;20463;-83
2022/11/09 04:36:34;;;;;;;3.10;2.90;;;20.90;53.20;;;;;;5127284;28;20510;-84
2022/11/09 04:39:02;;;;;;;2.57;2.33;;;20.90;53.20;;;;;;5137290;28;20459;-83
2022/11/09 04:41:30;;;;;;;3.40;2.70;;;20.90;53.20;;;;;;5130136;28;20447;-82
2022/11/09 04:43:58;;;;;;;3.30;2.93;;;20.90;53.30;;;;;;5132803;27;20471;-82
2022/11/09 04:46:26;;;;;;;2.80;2.60;;;20.90;53.20;;;;;;5127206;28;20454;-83
2022/11/09 04:48:54;;;;;;;2.90;2.70;;;20.90;53.30;;;;;;5131418;28;20443;-83
2022/11/09 04:51:23;;;;;;;4.13;2.60;;;20.90;53.20;;;;;;5129031;28;20462;-81
2022/11/09 04:53:52;;;;;;;4.83;2.87;;;20.90;53.30;;;;;;5114868;28;20475;-83
2022/11/09 04:56:21;;;;;;;2.60;2.40;;;20.90;53.30;;;;;;5128687;28;20454;-82
2022/11/09 04:58:49;;;;;;;3.43;2.60;;;20.90;53.40;;;;;;5105391;28;20495;-80
2022/11/09 05:01:17;;;;;;;3.47;2.33;;;20.90;53.40;;;;;;5109685;28;20449;-81
2022/11/09 05:03:45;;;;;;;2.80;2.40;;;20.90;53.40;;;;;;5119276;28;20473;-81
2022/11/09 05:06:31;;;;;;;3.13;2.30;;;21.00;53.50;;;;;;5120072;28;20450;-81
2022/11/09 05:09:02;;;;;;;3.20;2.77;;;20.90;53.40;;;;;;5128163;28;20447;-81
2022/11/09 05:11:30;;;;;;;3.20;2.67;;;20.90;53.50;;;;;;5116102;28;20471;-82
2022/11/09 05:13:58;;;;;;;3.17;2.30;;;20.90;53.40;;;;;;5119737;28;20479;-82
2022/11/09 05:16:27;;;;;;;2.50;2.30;;;20.90;53.50;;;;;;5113927;28;20448;-81
2022/11/09 05:18:55;;;;;;;4.27;2.80;;;20.90;53.40;;;;;;5120205;28;20467;-83
2022/11/09 05:21:23;;;;;;;3.70;2.40;;;20.90;53.50;;;;;;5107330;28;20448;-80
2022/11/09 05:23:59;;;;;;;3.53;2.67;;;20.90;53.50;;;;;;5109621;27;20519;-82
2022/11/09 05:26:30;;;;;;;4.13;3.10;;;20.90;53.50;;;;;;5112995;27;20456;-81
2022/11/09 05:28:58;;;;;;;2.60;2.40;;;21.00;53.50;;;;;;5118187;27;20448;-80
2022/11/09 05:31:27;;;;;;;2.73;2.47;;;21.00;53.60;;;;;;5105913;28;20452;-80
2022/11/09 05:33:55;;;;;;;2.97;2.70;;;21.00;53.60;;;;;;5120353;27;20477;-80
2022/11/09 05:36:23;;;;;;;2.87;2.60;;;21.00;53.60;;;;;;5110841;27;20463;-81
2022/11/09 05:38:51;;;;;;;3.30;2.50;;;21.00;53.60;;;;;;5110996;28;20456;-81
2022/11/09 05:41:19;;;;;;;4.17;2.73;;;21.00;53.60;;;;;;5121832;27;20552;-80
2022/11/09 05:43:49;;;;;;;3.70;2.73;;;21.00;53.70;;;;;;5119732;27;20462;-81
2022/11/09 05:46:17;;;;;;;4.90;2.63;;;21.00;53.70;;;;;;5103947;28;20456;-79
2022/11/09 05:48:45;;;;;;;4.00;2.50;;;20.90;53.50;;;;;;5111941;27;20482;-81
2022/11/09 05:51:14;;;;;;;2.30;2.10;;;20.90;53.70;;;;;;5118201;28;20452;-82
2022/11/09 05:53:42;;;;;;;2.77;2.57;;;20.90;53.70;;;;;;5119096;27;20470;-81
2022/11/09 05:56:14;;;;;;;4.73;2.80;;;20.90;53.80;;;;;;5121383;27;20463;-82
2022/11/09 05:58:42;;;;;;;2.60;2.40;;;20.90;53.70;;;;;;5134091;27;20452;-81
2022/11/09 06:01:12;;;;;;;3.30;2.50;;;20.90;53.70;;;;;;5130759;27;20451;-80
2022/11/09 06:03:42;;;;;;;3.43;2.77;;;20.90;54.30;;;;;;5126209;27;20466;-81
2022/11/09 06:06:11;;;;;;;3.37;2.73;;;20.90;53.80;;;;;;5124827;27;20448;-80
2022/11/09 06:08:39;;;;;;;3.13;2.83;;;20.90;53.70;;;;;;5119250;27;20439;-81
2022/11/09 06:11:08;;;;;;;2.93;2.53;;;20.90;53.80;;;;;;5113145;28;20448;-80
2022/11/09 06:13:36;;;;;;;3.60;2.63;;;20.90;53.80;;;;;;5105416;27;20463;-80
2022/11/09 06:16:05;;;;;;;2.73;2.53;;;20.90;53.80;;;;;;5111324;27;20449;-81
2022/11/09 06:18:35;;;;;;;4.03;2.40;;;20.90;53.80;;;;;;5119037;27;20451;-81
2022/11/09 06:21:04;;;;;;;3.03;2.83;;;20.90;53.90;;;;;;5115722;28;20448;-81
2022/11/09 06:23:33;;;;;;;3.30;2.80;;;20.90;53.90;;;;;;5118170;27;20482;-81
2022/11/09 06:26:02;;;;;;;3.13;2.80;;;20.90;53.80;;;;;;5117241;27;20452;-81
2022/11/09 06:28:30;;;;;;;3.00;2.70;;;20.90;54.00;;;;;;5126730;27;20522;-81
2022/11/09 06:30:58;;;;;;;3.13;2.83;;;20.90;54.00;;;;;;5120382;27;20447;-81
2022/11/09 06:33:27;;;;;;;5.60;3.00;;;20.90;54.60;;;;;;5117903;28;20460;-81
2022/11/09 06:35:56;;;;;;;5.50;2.87;;;20.90;53.90;;;;;;5125129;27;20513;-82
2022/11/09 06:38:25;;;;;;;4.50;2.80;;;20.90;54.00;;;;;;5107111;27;20455;-81
2022/11/09 06:40:53;;;;;;;3.73;3.07;;;20.90;54.00;;;;;;5114685;27;20476;-81
2022/11/09 06:43:21;;;;;;;3.70;2.70;;;20.90;54.00;;;;;;5125047;27;20467;-82
2022/11/09 06:45:49;;;;;;;5.57;3.10;;;20.90;54.10;;;;;;5115602;28;20456;-81
2022/11/09 06:48:18;;;;;;;4.63;3.17;;;20.90;54.00;;;;;;5120483;27;20520;-82
2022/11/09 06:50:46;;;;;;;4.80;2.97;;;20.90;54.10;;;;;;5117346;28;20452;-82
2022/11/09 06:53:15;;;;;;;2.87;2.63;;;20.90;54.10;;;;;;5117912;27;20505;-81
2022/11/09 06:55:43;;;;;;;6.67;2.87;;;20.90;54.10;;;;;;5108356;27;20456;-81
2022/11/09 06:58:18;;;;;;;3.63;3.20;;;20.90;54.10;;;;;;5128596;27;20503;-81
2022/11/09 07:00:46;;;;;;;3.87;2.70;;;20.90;54.10;;;;;;5107569;27;20487;-81
2022/11/09 07:03:15;;;;;;;4.93;3.53;;;20.90;54.10;;;;;;5115668;27;20452;-80
2022/11/09 07:05:43;;;;;;;3.27;2.90;;;20.90;54.20;;;;;;5116966;27;20448;-81
2022/11/09 07:08:11;;;;;;;3.40;3.00;;;20.90;54.10;;;;;;5117867;27;20950;-82
2022/11/09 07:10:41;;;;;;;3.23;2.83;;;20.90;54.20;;;;;;5124047;27;20462;-82
2022/11/09 07:13:09;;;;;;;3.83;2.97;;;20.80;54.00;;;;;;5117284;28;20444;-81
2022/11/09 07:15:38;;;;;;;4.03;3.17;;;20.80;54.10;;;;;;5116984;28;20462;-82
2022/11/09 07:18:07;;;;;;;3.47;3.10;;;20.80;54.10;;;;;;5107306;27;20452;-82
2022/11/09 07:20:35;;;;;;;4.93;2.97;;;20.80;54.10;;;;;;5109184;27;20470;-82
2022/11/09 07:23:03;;;;;;;3.23;2.70;;;20.80;54.10;;;;;;5128361;27;20447;-83
2022/11/09 07:25:32;;;;;;;4.50;3.57;;;20.80;54.10;;;;;;5118503;27;20455;-81
2022/11/09 07:28:06;;;;;;;5.53;3.30;;;20.80;54.00;;;;;;5117324;27;20467;-82
2022/11/09 07:30:35;;;;;;;5.43;3.13;;;20.90;54.10;;;;;;5123816;27;20443;-82
2022/11/09 07:33:03;;;;;;;2.77;2.43;;;20.80;54.10;;;;;;5112717;28;20445;-82
2022/11/09 07:35:37;;;;;;;3.63;3.33;;;20.80;54.10;;;;;;5120254;27;20457;-82
2022/11/09 07:38:05;;;;;;;4.20;2.87;;;20.80;54.10;;;;;;5111293;28;20441;-80
2022/11/09 07:40:33;;;;;;;4.17;3.00;;;20.80;54.00;;;;;;5114710;27;20470;-81
2022/11/09 07:43:01;;;;;;;4.80;3.30;;;20.90;54.10;;;;;;5110795;27;20440;-81
2022/11/09 07:45:32;;;;;;;3.50;3.20;;;20.90;54.20;;;;;;5118161;27;20559;-79
2022/11/09 07:48:01;;;;;;;4.80;3.47;;;20.90;54.10;;;;;;5107732;27;20453;-81
2022/11/09 07:50:32;;;;;;;3.90;2.70;;;20.90;54.10;;;;;;5104041;27;20476;-80
2022/11/09 07:53:01;;;;;;;4.43;2.83;;;20.90;54.10;;;;;;5119591;27;20793;-80
2022/11/09 07:55:29;;;;;;;3.23;2.90;;;20.90;54.10;;;;;;5112648;28;20452;-81
2022/11/09 07:57:58;;;;;;;3.90;3.00;;;21.00;54.10;;;;;;5111525;27;21007;-82
2022/11/09 08:00:26;;;;;;;2.97;2.73;;;21.00;54.00;;;;;;5115097;27;20467;-81
2022/11/09 08:02:56;;;;;;;8.77;2.77;;;21.00;54.10;;;;;;5108492;28;20464;-82
2022/11/09 08:05:24;;;;;;;4.27;2.97;;;21.00;54.00;;;;;;5121383;27;20451;-82
2022/11/09 08:07:54;;;;;;;5.30;2.77;;;21.10;53.90;;;;;;5108067;28;20533;-82
2022/11/09 08:10:23;;;;;;;5.77;3.17;;;21.10;54.00;;;;;;5119930;27;20454;-81
2022/11/09 08:12:54;;;;;;;5.80;2.90;;;21.10;54.00;;;;;;5123214;27;20458;-81
2022/11/09 08:15:22;;;;;;;2.97;2.77;;;21.10;54.00;;;;;;5123788;27;20459;-81
2022/11/09 08:17:50;;;;;;;5.97;3.07;;;21.10;54.00;;;;;;5111700;28;20435;-80
2022/11/09 08:20:20;;;;;;;8.93;2.87;;;21.20;54.10;;;;;;5117448;27;20478;-80
2022/11/09 08:22:48;;;;;;;3.87;2.97;;;21.30;54.00;;;;;;5121804;28;20447;-83
2022/11/09 08:25:16;;;;;;;5.43;2.87;;;21.30;53.80;;;;;;5116753;28;20476;-82
2022/11/09 08:27:45;;;;;;;5.67;3.37;;;21.40;53.80;;;;;;5118117;28;20447;-81
2022/11/09 08:30:14;;;;;;;4.20;2.80;;;21.50;53.80;;;;;;5120626;27;20455;-82
2022/11/09 08:32:42;;;;;;;4.80;2.90;;;21.60;53.80;;;;;;5117482;28;20454;-81
2022/11/09 08:35:11;;;;;;;5.10;3.20;;;21.80;53.80;;;;;;5114668;28;20476;-81
2022/11/09 08:37:41;;;;;;;4.27;2.90;;;21.90;53.70;;;;;;5108157;28;20456;-81
2022/11/09 08:40:09;;;;;;;3.73;2.87;;;22.10;53.70;;;;;;5106068;28;20453;-80
2022/11/09 08:42:37;;;;;;;4.83;2.93;;;22.20;53.60;;;;;;5112522;28;20822;-80
2022/11/09 08:45:08;;;;;;;4.57;3.40;;;22.30;53.60;;;;;;5117203;28;20483;-80
2022/11/09 08:47:37;;;;;;;5.27;2.97;;;22.50;53.70;;;;;;5118331;28;20446;-80
2022/11/09 08:50:06;;;;;;;5.03;3.40;;;22.60;53.60;;;;;;5115044;28;20458;-80
2022/11/09 08:52:34;;;;;;;4.00;2.50;;;22.70;53.30;;;;;;5106063;28;20453;-80
2022/11/09 08:55:04;;;;;;;4.37;3.40;;;22.90;53.40;;;;;;5117933;28;20471;-81
2022/11/09 08:57:32;;;;;;;4.20;3.33;;;23.00;53.40;;;;;;5118623;28;20460;-81
2022/11/09 09:00:00;;;;;;;5.20;3.53;;;23.10;53.20;;;;;;5105951;27;20449;-81
2022/11/09 09:02:28;;;;;;;4.90;3.10;;;23.30;53.10;;;;;;5121660;27;20526;-81
2022/11/09 09:04:57;;;;;;;8.00;3.20;;;23.30;52.90;;;;;;5113594;28;20479;-80
2022/11/09 09:07:25;;;;;;;3.43;2.90;;;23.30;52.80;;;;;;5111326;27;20422;-81
2022/11/09 09:09:53;;;;;;;3.37;2.90;;;23.40;52.90;;;;;;5112238;27;20447;-80
2022/11/09 09:12:22;;;;;;;6.13;3.77;;;23.40;53.00;;;;;;5122614;27;20447;-79
2022/11/09 09:14:50;;;;;;;6.60;3.23;;;23.50;52.80;;;;;;5119472;28;20466;-81
2022/11/09 09:17:18;;;;;;;3.77;3.07;;;23.70;53.00;;;;;;5118027;27;20460;-81
2022/11/09 09:19:47;;;;;;;5.50;3.50;;;23.90;53.00;;;;;;5122685;27;20479;-81
2022/11/09 09:22:17;;;;;;;6.40;3.10;;;24.20;52.90;;;;;;5119430;27;20468;-81
2022/11/09 09:24:45;;;;;;;3.50;3.20;;;24.30;52.50;;;;;;5119948;28;20434;-81
2022/11/09 09:27:13;;;;;;;4.03;2.90;;;24.40;52.30;;;;;;5119926;28;20451;-80
2022/11/09 09:29:42;;;;;;;3.67;3.27;;;24.40;52.50;;;;;;5115721;27;20447;-80
2022/11/09 09:32:11;;;;;;;3.70;3.00;;;24.60;52.30;;;;;;5118991;27;20444;-80
2022/11/09 09:34:38;;;;;;;3.90;3.03;;;24.60;52.20;;;;;;5118369;27;20430;-80
2022/11/09 09:37:07;;;;;;;4.47;3.20;;;24.60;52.00;;;;;;5119932;27;20462;-81
2022/11/09 09:39:34;;;;;;;5.53;3.67;;;24.60;52.10;;;;;;5119161;27;20917;-79
2022/11/09 09:42:05;;;;;;;3.83;3.37;;;24.60;52.00;;;;;;5114203;27;20451;-80
2022/11/09 09:44:37;;;;;;;3.40;3.00;;;24.50;51.80;;;;;;5119845;27;20491;-80
2022/11/09 09:47:10;;;;;;;3.67;3.03;;;24.50;51.90;;;;;;5115307;28;20436;-81
2022/11/09 09:49:40;;;;;;;5.87;3.60;;;24.40;52.00;;;;;;5115675;28;20419;-81
2022/11/09 09:52:15;;;;;;;7.83;3.63;;;24.40;52.00;;;;;;5115865;28;20524;-81
2022/11/09 09:54:44;;;;;;;4.03;3.10;;;24.40;52.10;;;;;;5115841;28;20434;-79
2022/11/09 09:57:14;;;;;;;5.13;3.20;;;24.40;51.90;;;;;;5116384;28;20440;-81
2022/11/09 09:59:43;;;;;;;6.90;3.37;;;24.50;52.10;;;;;;5115648;28;20443;-81
2022/11/09 10:02:16;;;;;;;6.47;3.67;;;24.60;52.00;;;;;;5116344;28;20435;-81
2022/11/09 10:04:44;;;;;;;5.20;3.00;;;24.60;51.80;;;;;;5114796;28;20450;-80
2022/11/09 10:07:14;;;;;;;4.73;3.23;;;24.60;51.80;;;;;;5116903;28;20418;-80
2022/11/09 10:09:58;;;;;;;6.73;3.20;;;24.60;51.80;;;;;;5117398;27;20426;-82
2022/11/09 10:12:32;;;;;;;3.97;3.00;;;24.70;51.90;;;;;;5125110;27;20442;-82
2022/11/09 10:15:15;;;;;;;4.20;3.40;;;24.80;52.10;;;;;;5118132;28;20443;-81
2022/11/09 10:18:01;;;;;;;3.80;3.00;;;24.80;51.70;;;;;;5118481;28;20414;-81
2022/11/09 10:20:38;;;;;;;5.40;3.43;;;24.80;51.80;;;;;;5119049;28;20433;-82
2022/11/09 10:23:16;;;;;;;4.77;3.30;;;24.80;51.60;;;;;;5118585;28;20467;-81
2022/11/09 10:25:46;;;;;;;4.10;3.10;;;24.80;51.80;;;;;;5111601;27;20430;-81
2022/11/09 10:28:32;;;;;;;4.70;3.10;;;24.80;51.80;;;;;;5114831;28;20422;-81
2022/11/09 10:31:21;;;;;;;6.03;3.20;;;24.80;51.60;;;;;;5111076;28;20420;-81
2022/11/09 10:33:53;;;;;;;4.20;3.10;;;24.80;51.50;;;;;;5118465;28;20464;-81
2022/11/09 10:36:24;;;;;;;6.10;2.80;;;24.80;51.50;;;;;;5118101;27;20432;-81
2022/11/09 10:38:53;;;;;;;3.90;3.07;;;24.70;51.30;;;;;;5112137;27;20422;-81
2022/11/09 10:41:26;;;;;;;4.20;2.80;;;24.60;51.50;;;;;;5119775;27;20442;-80
2022/11/09 10:43:55;;;;;;;7.83;3.10;;;24.60;51.50;;;;;;5112839;27;20449;-81
2022/11/09 10:46:23;;;;;;;5.50;2.63;;;24.50;51.50;;;;;;5119681;27;20440;-81
2022/11/09 10:48:54;;;;;;;2.87;2.57;;;24.50;51.50;;;;;;5122733;27;20452;-81
2022/11/09 10:51:33;;;;;;;2.90;2.70;;;24.40;51.30;;;;;;5116529;28;20432;-81
2022/11/09 10:54:19;;;;;;;6.00;2.80;;;24.40;51.30;;;;;;5118874;28;20426;-81
2022/11/09 10:56:51;;;;;;;6.13;2.80;;;24.30;51.50;;;;;;5122933;27;20430;-80
2022/11/09 10:59:37;;;;;;;4.40;2.93;;;24.30;51.60;;;;;;5118885;28;20418;-81
2022/11/09 11:02:33;;;;;;;4.10;2.50;;;24.30;51.50;;;;;;5117752;28;20438;-81
2022/11/09 11:05:22;;;;;;;4.23;2.57;;;24.30;51.30;;;;;;5114156;28;20466;-81
2022/11/09 11:07:49;;;;;;;5.30;2.80;;;24.30;51.30;;;;;;5110722;28;20457;-80
2022/11/09 11:10:19;;;;;;;6.20;2.60;;;24.40;51.90;;;;;;5105010;28;20468;-81
2022/11/09 11:13:12;;;;;;;6.57;2.87;;;24.90;51.70;;;;;;5108983;28;20426;-81
2022/11/09 11:15:40;;;;;;;3.57;2.27;;;25.40;51.20;;;;;;5117996;28;20451;-81
2022/11/09 11:18:15;;;;;;;6.03;2.33;;;25.90;50.20;;;;;;5116387;27;20437;-80
2022/11/09 11:20:45;;;;;;;3.13;1.73;;;26.30;50.00;;;;;;5116195;28;20443;-80
2022/11/09 11:23:14;;;;;;;4.57;2.90;;;26.70;49.10;;;;;;5116806;28;20442;-81
2022/11/09 11:26:03;;;;;;;4.87;2.30;;;27.20;48.80;;;;;;5116672;28;20483;-81
2022/11/09 11:28:34;;;;;;;3.03;2.13;;;27.70;48.30;;;;;;5086302;28;20444;-80
2022/11/09 11:31:02;;;;;;;2.33;2.00;;;27.90;47.50;;;;;;5110539;28;20440;-81
2022/11/09 11:33:30;;;;;;;4.70;2.00;;;28.30;47.30;;;;;;5122881;27;20441;-81
2022/11/09 11:36:07;;;;;;;3.03;2.17;;;28.60;47.00;;;;;;5116853;28;20436;-81
2022/11/09 11:38:36;;;;;;;2.30;2.10;;;29.00;46.70;;;;;;5117467;28;20440;-81
2022/11/09 11:41:14;;;;;;;3.70;2.07;;;29.30;46.30;;;;;;5124024;27;20411;-81
2022/11/09 11:43:45;;;;;;;2.73;2.20;;;29.70;45.80;;;;;;5117373;27;20471;-81
2022/11/09 11:46:17;;;;;;;4.30;2.10;;;29.50;45.00;;;;;;5116579;28;20440;-81
2022/11/09 11:49:11;;;;;;;3.97;2.20;;;29.70;45.00;;;;;;5117978;28;20447;-80
2022/11/09 11:51:45;;;;;;;3.87;2.20;;;29.50;44.60;;;;;;5119749;27;20455;-81
2022/11/09 11:54:16;;;;;;;5.27;2.27;;;29.30;44.70;;;;;;5116065;28;20974;-80
2022/11/09 11:56:47;;;;;;;4.17;2.07;;;29.30;45.60;;;;;;5117548;27;20437;-81
2022/11/09 11:59:40;;;;;;;2.40;2.30;;;29.30;44.80;;;;;;5116815;27;20448;-80
2022/11/09 12:02:21;;;;;;;2.60;2.10;;;29.10;44.80;;;;;;5109945;28;20501;-80
2022/11/09 12:05:00;;;;;;;5.10;2.43;;;28.90;45.40;;;;;;5123571;27;20529;-80
2022/11/09 12:07:33;;;;;;;3.50;2.03;;;28.90;45.80;;;;;;5115578;28;20994;-80
2022/11/09 12:10:19;;;;;;;3.37;1.97;;;28.80;45.30;;;;;;5120588;27;20449;-81
2022/11/09 12:12:51;;;;;;;2.60;2.40;;;28.80;45.90;;;;;;5113371;28;20450;-81
2022/11/09 12:15:26;;;;;;;3.53;1.80;;;29.10;45.90;;;;;;5112502;28;20438;-81
2022/11/09 12:18:01;;;;;;;5.07;2.50;;;29.20;44.80;;;;;;5112910;28;20446;-80
2022/11/09 12:20:30;;;;;;;6.10;2.30;;;29.30;45.20;;;;;;5112529;27;20447;-80
2022/11/09 12:23:16;;;;;;;3.57;2.10;;;29.50;44.50;;;;;;5107504;27;20431;-79
2022/11/09 12:25:46;;;;;;;2.93;2.17;;;29.30;44.10;;;;;;5114407;28;20410;-79
2022/11/09 12:28:21;;;;;;;2.63;2.33;;;29.50;45.00;;;;;;5113124;28;20451;-80
2022/11/09 12:30:58;;;;;;;3.00;2.07;;;29.70;44.20;;;;;;5114951;28;20426;-79
2022/11/09 12:33:28;;;;;;;4.77;2.17;;;29.40;43.80;;;;;;5111548;28;20467;-79
2022/11/09 12:36:05;;;;;;;3.10;2.10;;;29.40;44.70;;;;;;5110691;28;20447;-79
2022/11/09 12:38:36;;;;;;;2.60;2.00;;;29.70;44.50;;;;;;5118402;28;20459;-80
2022/11/09 12:41:08;;;;;;;2.13;1.77;;;30.10;44.20;;;;;;5099510;28;20440;-80
2022/11/09 12:43:44;;;;;;;1.90;1.80;;;30.50;43.80;;;;;;5106409;28;20466;-79
2022/11/09 12:46:12;;;;;;;2.20;2.00;;;30.90;43.30;;;;;;5113524;28;20457;-80
2022/11/09 12:48:40;;;;;;;3.90;2.03;;;30.90;42.40;;;;;;5109079;28;20760;-77
2022/11/09 12:51:08;;;;;;;1.87;1.73;;;31.00;42.60;;;;;;5099266;28;20443;-79
2022/11/09 12:53:38;;;;;;;3.00;1.80;;;30.90;42.50;;;;;;5114854;28;20467;-80
2022/11/09 12:56:08;;;;;;;3.77;2.10;;;31.10;42.50;;;;;;5116621;28;20451;-81
2022/11/09 12:58:37;;;;;;;3.80;1.60;;;31.00;42.30;;;;;;5116869;28;20455;-81
2022/11/09 13:01:06;;;;;;;3.17;2.33;;;30.70;41.90;;;;;;5121758;28;20415;-81
2022/11/09 13:03:35;;;;;;;3.47;1.80;;;30.20;42.00;;;;;;5114985;28;20479;-81